Time;durP1;ratioP1;P1;durP2;ratioP2;P2;SDS_P1;SDS_P2;PMS_P1;PMS_P2;Temp;Humidity;BMP_temperature;BMP_pressure;BME280_temperature;BME280_humidity;BME280_pressure;Samples;Min_cycle;Max_cycle;Signal;HPM_P1;HPM_P2
2024/01/31 00:01:15;;;;;;;6.30;1.60;;;;;;;7.90;78.45;103153.28;7389100;19;20044;-60
2024/01/31 00:03:47;;;;;;;5.07;1.70;;;;;;;7.81;78.48;103158.75;7388815;19;20491;-61
2024/01/31 00:06:17;;;;;;;5.78;1.42;;;;;;;7.76;78.55;103161.50;7390295;19;20034;-60
2024/01/31 00:08:48;;;;;;;6.95;1.75;;;;;;;7.71;78.40;103157.25;7391698;19;20760;-61
2024/01/31 00:11:19;;;;;;;5.22;1.80;;;;;;;7.81;78.35;103156.09;7391185;19;20018;-61
2024/01/31 00:13:50;;;;;;;5.47;1.67;;;;;;;7.82;78.28;103161.38;7391715;19;20437;-61
2024/01/31 00:16:20;;;;;;;6.05;1.52;;;;;;;7.77;78.08;103165.00;7389742;19;20011;-61
2024/01/31 00:18:51;;;;;;;4.95;1.60;;;;;;;7.73;77.86;103169.47;7390827;19;20353;-61
2024/01/31 00:21:22;;;;;;;6.63;1.88;;;;;;;7.80;77.62;103168.44;7390706;19;20014;-60
2024/01/31 00:23:55;;;;;;;6.43;1.75;;;;;;;7.76;77.74;103177.31;7387679;19;20494;-61
2024/01/31 00:26:26;;;;;;;5.97;1.92;;;;;;;7.86;77.95;103175.34;7389970;19;20378;-61
2024/01/31 00:28:57;;;;;;;6.03;2.20;;;;;;;7.92;77.64;103180.47;7388732;19;20043;-60
2024/01/31 00:31:30;;;;;;;;;;;;;;;7.69;77.63;103191.53;7391007;19;20010;-61
2024/01/31 00:34:01;;;;;;;8.75;2.40;;;;;;;7.64;77.77;103179.38;7389389;19;19933;-61
2024/01/31 00:36:40;;;;;;;7.90;1.92;;;;;;;7.66;77.87;103190.75;7387570;19;20047;-60
2024/01/31 00:39:10;;;;;;;6.05;1.80;;;;;;;7.73;77.90;103203.75;7389211;19;20019;-62
2024/01/31 00:41:42;;;;;;;7.85;1.40;;;;;;;7.67;77.48;103203.91;7389581;19;20018;-61
2024/01/31 00:44:13;;;;;;;4.63;1.20;;;;;;;7.75;77.25;103209.03;7389753;19;20015;-62
2024/01/31 00:46:46;;;;;;;5.63;1.45;;;;;;;7.72;77.36;103204.66;7388078;19;20472;-62
2024/01/31 00:49:16;;;;;;;7.03;1.80;;;;;;;7.69;77.58;103203.88;7390697;19;20011;-60
2024/01/31 00:51:54;;;;;;;6.43;1.80;;;;;;;7.73;77.63;103209.03;7389321;19;20025;-62
2024/01/31 00:54:25;;;;;;;6.40;1.70;;;;;;;7.68;77.39;103210.91;7390626;19;20332;-60
2024/01/31 00:56:56;;;;;;;7.70;1.90;;;;;;;7.71;77.47;103225.81;7387631;19;20022;-61
2024/01/31 00:59:26;;;;;;;6.15;1.88;;;;;;;7.71;77.65;103216.13;7390353;19;20019;-61
2024/01/31 01:01:57;;;;;;;5.82;1.52;;;;;;;7.66;77.97;103219.75;7387971;19;20029;-60
2024/01/31 01:04:28;;;;;;;4.78;1.38;;;;;;;7.65;77.71;103226.81;7388408;19;20027;-62
2024/01/31 01:06:59;;;;;;;6.82;1.80;;;;;;;7.64;77.76;103232.13;7387583;19;20052;-62
2024/01/31 01:09:36;;;;;;;7.50;2.03;;;;;;;7.73;77.65;103232.78;7389331;19;20372;-61
2024/01/31 01:12:07;;;;;;;8.82;2.60;;;;;;;7.75;77.38;103227.47;7388448;19;20038;-62
2024/01/31 01:14:41;;;;;;;7.82;2.20;;;;;;;7.68;77.61;103245.19;7395399;19;20021;-61
2024/01/31 01:17:12;;;;;;;5.95;1.60;;;;;;;7.54;78.59;103247.25;7393524;19;20031;-63
2024/01/31 01:19:43;;;;;;;5.32;0.98;;;;;;;7.37;80.04;103250.25;7395648;19;20034;-62
2024/01/31 01:22:13;;;;;;;3.05;0.93;;;;;;;7.43;80.25;103243.97;7394538;19;20014;-62
2024/01/31 01:24:44;;;;;;;4.28;1.00;;;;;;;7.48;79.96;103253.53;7397003;19;20010;-62
2024/01/31 01:27:14;;;;;;;4.88;1.10;;;;;;;7.46;80.08;103254.47;7394849;19;20015;-62
2024/01/31 01:29:45;;;;;;;5.82;1.10;;;;;;;7.42;79.80;103251.00;7395147;19;20021;-62
2024/01/31 01:32:15;;;;;;;4.53;1.25;;;;;;;7.40;79.91;103252.78;7396950;19;20019;-62
2024/01/31 01:34:46;;;;;;;5.43;1.20;;;;;;;7.36;79.92;103256.38;7396235;19;20074;-62
2024/01/31 01:37:17;;;;;;;2.60;1.00;;;;;;;7.36;80.10;103258.16;7393877;19;20010;-61
2024/01/31 01:39:48;;;;;;;5.32;1.17;;;;;;;7.29;80.40;103258.31;7395697;19;20028;-62
2024/01/31 01:42:19;;;;;;;4.63;1.40;;;;;;;7.43;79.87;103259.78;7395906;19;20378;-62
2024/01/31 01:44:50;;;;;;;2.97;1.10;;;;;;;7.37;79.70;103259.94;7395534;19;20053;-62
2024/01/31 01:47:21;;;;;;;4.13;0.93;;;;;;;7.40;79.58;103265.09;7392332;19;20082;-62
2024/01/31 01:49:51;;;;;;;6.47;1.50;;;;;;;7.50;78.75;103270.19;7395430;19;20010;-61
2024/01/31 01:52:25;;;;;;;4.82;1.60;;;;;;;7.48;79.02;103264.09;7395868;19;20125;-61
2024/01/31 01:54:57;;;;;;;5.25;1.67;;;;;;;7.51;79.32;103273.69;7395619;19;20386;-61
2024/01/31 01:57:31;;;;;;;5.03;1.42;;;;;;;7.40;79.48;103267.75;7391392;19;20034;-62
2024/01/31 02:00:03;;;;;;;6.80;1.80;;;;;;;7.44;79.81;103274.69;7395124;19;20040;-61
2024/01/31 02:02:40;;;;;;;3.00;1.20;;;;;;;7.27;79.89;103275.03;7395296;19;20018;-61
2024/01/31 02:05:11;;;;;;;4.28;1.02;;;;;;;7.28;80.50;103284.66;7395553;19;20043;-61
2024/01/31 02:07:44;;;;;;;4.00;1.30;;;;;;;7.31;80.57;103277.56;7391496;19;20027;-61
2024/01/31 02:10:14;;;;;;;9.38;2.08;;;;;;;7.30;81.01;103288.16;7393998;19;20395;-62
2024/01/31 02:12:48;;;;;;;7.38;1.67;;;;;;;7.14;81.55;103266.50;7394894;19;20017;-62
2024/01/31 02:15:18;;;;;;;8.60;2.25;;;;;;;7.16;81.63;103277.00;7393192;19;20430;-61
2024/01/31 02:17:47;;;;;;;5.90;1.73;;;;;;;7.16;81.29;103277.00;7394595;19;20044;-62
2024/01/31 02:20:18;;;;;;;6.18;2.20;;;;;;;7.21;81.04;103285.69;7394249;19;20031;-61
2024/01/31 02:22:47;;;;;;;7.40;2.33;;;;;;;7.28;80.54;103279.41;7393699;19;20109;-62
2024/01/31 02:25:18;;;;;;;7.90;2.30;;;;;;;7.33;80.47;103273.16;7390539;19;20018;-62
2024/01/31 02:27:49;;;;;;;8.98;2.20;;;;;;;7.35;80.22;103280.16;7393583;19;20022;-62
2024/01/31 02:30:19;;;;;;;9.55;2.28;;;;;;;7.36;79.39;103273.97;7394350;19;20347;-62
2024/01/31 02:32:49;;;;;;;10.07;1.88;;;;;;;7.42;79.12;103280.00;7392578;19;20018;-61
2024/01/31 02:35:20;;;;;;;8.68;1.70;;;;;;;7.36;79.03;103282.75;7394246;19;20447;-61
2024/01/31 02:37:49;;;;;;;8.43;1.88;;;;;;;7.33;79.68;103282.84;7393751;19;20022;-62
2024/01/31 02:40:19;;;;;;;5.68;1.65;;;;;;;7.22;80.51;103269.00;7391927;19;20535;-61
2024/01/31 02:42:52;;;;;;;9.55;2.47;;;;;;;7.13;80.73;103264.75;7393576;19;20506;-62
2024/01/31 02:45:23;;;;;;;7.18;1.90;;;;;;;7.11;81.61;103268.31;7394042;19;20022;-62
2024/01/31 02:47:52;;;;;;;5.47;1.35;;;;;;;7.17;81.53;103268.19;7392716;19;20019;-62
2024/01/31 02:50:25;;;;;;;5.97;1.33;;;;;;;7.15;81.87;103268.22;7392498;19;20018;-61
2024/01/31 02:52:56;;;;;;;7.78;1.80;;;;;;;7.16;81.62;103264.69;7394347;19;20015;-62
2024/01/31 02:55:28;;;;;;;8.50;2.08;;;;;;;7.17;81.58;103261.16;7393473;19;20445;-62
2024/01/31 02:58:00;;;;;;;5.47;1.83;;;;;;;7.23;81.21;103257.53;7394188;19;20043;-61
2024/01/31 03:00:37;;;;;;;7.05;1.67;;;;;;;7.16;81.42;103253.28;7394115;19;20023;-61
2024/01/31 03:03:08;;;;;;;8.70;1.45;;;;;;;7.15;81.60;103262.09;7393141;19;20169;-61
2024/01/31 03:05:41;;;;;;;8.15;1.65;;;;;;;7.13;81.45;103263.88;7392435;19;20022;-62
2024/01/31 03:08:11;;;;;;;8.35;1.42;;;;;;;7.09;81.42;103260.44;7393622;19;20022;-62
2024/01/31 03:10:44;;;;;;;8.25;2.00;;;;;;;7.09;81.65;103257.78;7393631;19;20044;-62
2024/01/31 03:13:14;;;;;;;8.68;2.05;;;;;;;7.09;81.44;103258.66;7393376;19;20044;-61
2024/01/31 03:15:45;;;;;;;7.13;1.95;;;;;;;7.17;81.54;103263.78;7392113;19;20018;-62
2024/01/31 03:18:16;;;;;;;7.82;1.83;;;;;;;7.09;81.32;103255.16;7393050;19;20021;-61
2024/01/31 03:20:47;;;;;;;10.48;2.05;;;;;;;7.13;81.35;103263.88;7393258;19;20495;-61
2024/01/31 03:23:17;;;;;;;6.05;1.45;;;;;;;7.16;80.74;103262.06;7392330;19;20019;-62
2024/01/31 03:25:48;;;;;;;4.88;1.17;;;;;;;7.24;80.35;103265.41;7390815;19;20022;-62
2024/01/31 03:28:20;;;;;;;7.72;1.65;;;;;;;7.21;79.99;103270.75;7392762;19;20015;-62
2024/01/31 03:30:51;;;;;;;6.68;1.50;;;;;;;7.13;79.95;103271.78;7392302;19;20021;-62
2024/01/31 03:33:21;;;;;;;10.00;2.08;;;;;;;7.17;79.80;103274.31;7392130;19;20043;-62
2024/01/31 03:35:52;;;;;;;9.57;1.80;;;;;;;7.24;79.50;103272.44;7389370;19;20015;-61
2024/01/31 03:38:23;;;;;;;8.95;1.80;;;;;;;7.09;79.82;103270.97;7392490;19;20022;-61
2024/01/31 03:40:53;;;;;;;6.53;1.70;;;;;;;7.13;79.92;103271.78;7391710;19;20006;-61
2024/01/31 03:43:24;;;;;;;7.95;1.40;;;;;;;7.23;79.88;103265.44;7391354;19;20357;-61
2024/01/31 03:45:54;;;;;;;6.20;1.20;;;;;;;7.26;79.50;103266.25;7391739;19;20142;-61
2024/01/31 03:48:25;;;;;;;6.07;0.90;;;;;;;7.31;79.78;103264.41;7390306;19;20040;-61
2024/01/31 03:50:58;;;;;;;6.70;1.25;;;;;;;7.19;79.82;103262.00;7392996;19;20457;-61
2024/01/31 03:53:33;;;;;;;5.93;1.10;;;;;;;7.24;80.15;103261.91;7391148;19;20015;-61
2024/01/31 03:56:04;;;;;;;6.28;1.13;;;;;;;7.23;79.84;103270.72;7390320;19;20397;-61
2024/01/31 03:58:40;;;;;;;4.50;1.05;;;;;;;7.21;79.88;103278.66;7391559;19;20018;-62
2024/01/31 04:01:16;;;;;;;6.25;1.10;;;;;;;7.27;79.79;103282.94;7389154;19;20321;-63
2024/01/31 04:03:47;;;;;;;9.23;1.42;;;;;;;7.20;79.45;103279.53;7389367;19;20018;-62
2024/01/31 04:06:17;;;;;;;6.25;1.00;;;;;;;7.20;79.52;103279.53;7390312;19;20022;-62
2024/01/31 04:08:48;;;;;;;5.10;0.93;;;;;;;7.20;79.23;103278.69;7391835;19;20023;-62
2024/01/31 04:11:19;;;;;;;5.28;1.15;;;;;;;7.12;79.41;103267.41;7391412;19;20035;-61
2024/01/31 04:13:49;;;;;;;7.03;1.00;;;;;;;7.18;79.49;103270.81;7390887;19;20011;-62
2024/01/31 04:16:20;;;;;;;7.47;1.20;;;;;;;7.16;79.64;103274.38;7390422;19;20027;-62
2024/01/31 04:18:50;;;;;;;5.57;1.00;;;;;;;7.20;79.25;103276.03;7390268;19;20048;-62
2024/01/31 04:21:22;;;;;;;5.80;1.10;;;;;;;7.23;79.30;103276.84;7389940;19;20031;-62
2024/01/31 04:23:52;;;;;;;4.32;1.10;;;;;;;7.24;78.61;103267.19;7389981;19;20048;-62
2024/01/31 04:26:23;;;;;;;6.35;1.10;;;;;;;7.29;78.14;103270.63;7389449;19;20085;-62
2024/01/31 04:28:53;;;;;;;8.57;1.42;;;;;;;7.23;77.15;103273.34;7391264;19;20014;-63
2024/01/31 04:31:24;;;;;;;8.00;1.15;;;;;;;7.30;76.39;103269.72;7389165;19;20087;-62
2024/01/31 04:33:55;;;;;;;5.38;1.10;;;;;;;7.33;76.49;103277.56;7390507;19;20363;-60
2024/01/31 04:36:25;;;;;;;6.20;1.00;;;;;;;7.26;76.48;103271.53;7388945;19;20023;-62
2024/01/31 04:38:56;;;;;;;6.63;1.17;;;;;;;7.28;76.35;103255.69;7391491;19;20052;-62
2024/01/31 04:41:27;;;;;;;8.05;1.50;;;;;;;7.35;76.49;103267.84;7390286;19;20049;-61
2024/01/31 04:43:58;;;;;;;10.90;1.25;;;;;;;7.30;76.70;103265.31;7389835;19;20022;-61
2024/01/31 04:46:36;;;;;;;12.40;1.67;;;;;;;7.30;76.52;103264.44;7388587;19;20064;-63
2024/01/31 04:49:08;;;;;;;6.78;1.17;;;;;;;7.28;76.84;103253.91;7389443;19;20015;-62
2024/01/31 04:51:42;;;;;;;7.15;1.10;;;;;;;7.25;77.28;103258.38;7390467;19;20053;-62
2024/01/31 04:54:12;;;;;;;10.23;1.10;;;;;;;7.31;77.27;103268.81;7388288;19;20042;-62
2024/01/31 04:56:50;;;;;;;6.97;1.33;;;;;;;7.25;77.27;103256.63;7388698;19;20496;-62
2024/01/31 04:59:21;;;;;;;8.30;1.33;;;;;;;7.34;77.08;103263.47;7390293;19;20056;-62
2024/01/31 05:01:54;;;;;;;8.70;1.20;;;;;;;7.27;77.34;103261.84;7389451;19;20340;-62
2024/01/31 05:04:25;;;;;;;7.60;1.10;;;;;;;7.28;77.13;103268.84;7387533;19;20015;-63
2024/01/31 05:06:56;;;;;;;6.85;1.15;;;;;;;7.28;77.13;103267.09;7388667;19;20100;-63
2024/01/31 05:09:26;;;;;;;8.55;1.10;;;;;;;7.32;76.82;103266.13;7390063;19;20010;-62
2024/01/31 05:11:57;;;;;;;6.25;0.93;;;;;;;7.31;76.38;103274.94;7388444;19;20035;-62
2024/01/31 05:14:29;;;;;;;7.57;1.20;;;;;;;7.26;76.06;103274.16;7390062;19;20122;-62
2024/01/31 05:17:01;;;;;;;5.30;0.95;;;;;;;7.26;75.96;103273.31;7387662;19;20468;-62
2024/01/31 05:19:40;;;;;;;5.45;0.93;;;;;;;7.31;75.73;103281.97;7389461;19;20015;-62
2024/01/31 05:22:10;;;;;;;8.90;1.20;;;;;;;7.37;74.95;103275.75;7389636;19;20044;-63
2024/01/31 05:24:43;;;;;;;5.63;1.00;;;;;;;7.33;74.36;103274.94;7388109;19;20044;-62
2024/01/31 05:27:13;;;;;;;7.07;1.13;;;;;;;7.32;73.67;103284.56;7385939;19;20011;-62
2024/01/31 05:29:45;;;;;;;8.20;1.38;;;;;;;7.22;73.99;103282.16;7388243;19;20033;-62
2024/01/31 05:32:15;;;;;;;8.00;1.02;;;;;;;7.29;73.87;103291.69;7389352;19;20025;-60
2024/01/31 05:34:48;;;;;;;8.60;1.60;;;;;;;7.32;73.49;103289.84;7388848;19;20018;-60
2024/01/31 05:37:19;;;;;;;8.63;1.70;;;;;;;7.24;73.90;103294.41;7385741;19;20030;-60
2024/01/31 05:39:49;;;;;;;4.85;1.08;;;;;;;7.32;73.63;103299.53;7388743;19;20082;-59
2024/01/31 05:42:20;;;;;;;6.03;1.30;;;;;;;7.28;73.34;103301.34;7387929;19;20015;-59
2024/01/31 05:44:53;;;;;;;6.00;1.25;;;;;;;7.17;73.34;103299.81;7387538;19;20023;-60
2024/01/31 05:47:23;;;;;;;6.78;1.00;;;;;;;7.18;73.65;103299.81;7385887;19;20426;-60
2024/01/31 05:49:54;;;;;;;6.78;1.17;;;;;;;7.24;73.50;103299.66;7388673;19;20019;-60
2024/01/31 05:52:25;;;;;;;9.00;1.27;;;;;;;7.30;72.95;103301.34;7388447;19;20026;-60
2024/01/31 05:54:55;;;;;;;5.45;1.00;;;;;;;7.29;73.08;103313.66;7393445;19;20014;-60
2024/01/31 05:57:26;;;;;;;7.75;1.63;;;;;;;7.19;72.95;103319.13;7385177;19;20026;-60
2024/01/31 05:59:56;;;;;;;6.07;1.40;;;;;;;7.16;72.95;103324.44;7390738;19;20021;-61
2024/01/31 06:02:28;;;;;;;5.80;1.10;;;;;;;7.22;72.40;103325.19;7395228;19;20328;-58
2024/01/31 06:05:01;;;;;;;9.85;1.33;;;;;;;7.33;72.49;103333.78;7393000;19;20032;-57
2024/01/31 06:07:41;;;;;;;7.35;1.42;;;;;;;7.37;71.88;103333.72;7392749;19;20037;-58
2024/01/31 06:10:12;;;;;;;6.30;1.25;;;;;;;7.37;71.90;103334.59;7396002;19;20026;-57
2024/01/31 06:12:45;;;;;;;7.78;1.25;;;;;;;7.25;71.96;103334.78;7396000;19;20491;-56
2024/01/31 06:15:16;;;;;;;6.55;1.42;;;;;;;7.25;70.97;103337.44;7394088;19;20448;-58
2024/01/31 06:17:46;;;;;;;6.55;1.63;;;;;;;7.19;70.60;103338.44;7392439;19;20050;-57
2024/01/31 06:20:20;;;;;;;5.40;1.10;;;;;;;7.30;69.90;103340.88;7395792;19;20086;-55
2024/01/31 06:22:50;;;;;;;7.20;1.10;;;;;;;7.37;69.82;103329.31;7394864;19;20018;-58
2024/01/31 06:25:21;;;;;;;10.85;1.55;;;;;;;7.39;69.47;103337.19;7393174;19;20057;-58
2024/01/31 06:27:50;;;;;;;10.68;1.48;;;;;;;7.29;70.18;103331.22;7394942;19;20014;-58
2024/01/31 06:30:30;;;;;;;8.65;1.35;;;;;;;7.23;69.51;103339.25;7393047;19;20033;-57
2024/01/31 06:33:07;;;;;;;4.47;1.30;;;;;;;7.26;69.38;103344.47;7394393;19;20557;-57
2024/01/31 06:35:41;;;;;;;4.93;1.08;;;;;;;7.26;69.35;103347.97;7393521;19;20014;-57
2024/01/31 06:38:12;;;;;;;8.55;1.75;;;;;;;7.23;69.28;103347.16;7393985;19;20007;-58
2024/01/31 06:40:42;;;;;;;5.57;1.30;;;;;;;7.19;69.37;103337.56;7394368;19;20015;-58
2024/01/31 06:43:13;;;;;;;8.70;1.38;;;;;;;7.15;69.86;103346.41;7394146;19;20455;-59
2024/01/31 06:45:45;;;;;;;8.65;1.30;;;;;;;7.17;69.48;103355.16;7390137;19;20018;-57
2024/01/31 06:48:16;;;;;;;5.90;1.30;;;;;;;7.20;69.47;103349.84;7393953;19;20019;-57
2024/01/31 06:50:46;;;;;;;9.77;1.50;;;;;;;7.24;69.18;103354.16;7392090;19;20486;-58
2024/01/31 06:53:17;;;;;;;7.47;1.23;;;;;;;7.23;69.10;103344.50;7394132;19;20507;-57
2024/01/31 06:55:48;;;;;;;6.60;1.30;;;;;;;7.27;68.61;103344.41;7391685;19;20384;-57
2024/01/31 06:58:19;;;;;;;7.18;1.50;;;;;;;7.28;68.50;103343.50;7394149;19;20488;-57
2024/01/31 07:00:53;;;;;;;7.28;1.30;;;;;;;7.23;68.60;103350.66;7393132;19;20027;-57
2024/01/31 07:03:24;;;;;;;5.85;1.17;;;;;;;7.27;68.47;103344.41;7394180;19;20019;-57
2024/01/31 07:05:55;;;;;;;4.88;1.10;;;;;;;7.32;67.73;103352.25;7391435;19;20018;-56
2024/01/31 07:08:25;;;;;;;7.20;1.20;;;;;;;7.26;67.81;103361.13;7393743;19;20019;-57
2024/01/31 07:10:56;;;;;;;6.35;1.20;;;;;;;7.24;67.85;103362.06;7392670;19;20018;-57
2024/01/31 07:13:26;;;;;;;7.05;1.25;;;;;;;7.20;67.92;103368.28;7393317;19;20130;-60
2024/01/31 07:15:57;;;;;;;8.15;1.98;;;;;;;7.22;67.50;103364.72;7393048;19;20472;-60
2024/01/31 07:18:30;;;;;;;4.18;1.05;;;;;;;7.17;67.90;103373.59;7393937;19;20043;-58
2024/01/31 07:21:00;;;;;;;5.82;1.10;;;;;;;7.21;67.67;103384.09;7389691;19;20022;-58
2024/01/31 07:23:37;;;;;;;6.05;1.23;;;;;;;7.18;67.88;103370.94;7393173;19;20022;-58
2024/01/31 07:26:08;;;;;;;5.82;1.17;;;;;;;7.27;67.74;103383.97;7390242;19;20040;-58
2024/01/31 07:28:39;;;;;;;7.10;1.23;;;;;;;7.31;67.52;103376.88;7390635;19;20081;-57
2024/01/31 07:31:10;;;;;;;7.43;1.30;;;;;;;7.27;67.49;103378.69;7390094;19;20018;-55
2024/01/31 07:33:41;;;;;;;4.32;1.05;;;;;;;7.28;67.59;103388.31;7392794;19;20011;-58
2024/01/31 07:36:11;;;;;;;9.93;1.20;;;;;;;7.27;67.71;103385.72;7391285;19;20021;-59
2024/01/31 07:38:43;;;;;;;7.45;1.25;;;;;;;7.28;67.30;103398.00;7392608;19;20324;-53
2024/01/31 07:41:14;;;;;;;7.45;1.20;;;;;;;7.29;67.25;103398.00;7391917;19;20037;-54
2024/01/31 07:43:45;;;;;;;7.20;1.73;;;;;;;7.26;67.77;103402.44;7392226;19;20044;-53
2024/01/31 07:46:15;;;;;;;5.15;1.25;;;;;;;7.33;67.49;103398.81;7389346;19;20018;-56
2024/01/31 07:48:46;;;;;;;6.20;1.13;;;;;;;7.40;67.64;103402.19;7390126;19;20130;-54
2024/01/31 07:51:16;;;;;;;9.13;1.33;;;;;;;7.35;67.47;103386.47;7389706;19;20044;-55
2024/01/31 07:53:47;;;;;;;6.28;1.17;;;;;;;7.35;67.61;103397.00;7391669;19;20014;-59
2024/01/31 07:56:17;;;;;;;8.27;1.60;;;;;;;7.28;67.64;103409.41;7389340;19;20079;-58
2024/01/31 07:58:48;;;;;;;6.20;1.10;;;;;;;7.39;67.06;103409.22;7390971;19;20364;-58
2024/01/31 08:01:19;;;;;;;3.28;0.98;;;;;;;7.42;67.19;103414.44;7389909;19;20014;-57
2024/01/31 08:03:50;;;;;;;4.15;0.93;;;;;;;7.32;66.97;103407.59;7391225;19;20551;-56
2024/01/31 08:06:20;;;;;;;3.78;1.10;;;;;;;7.25;66.98;103398.94;7388418;19;20028;-56
2024/01/31 08:08:51;;;;;;;6.43;1.08;;;;;;;7.31;67.12;103401.47;7390730;19;20014;-57
2024/01/31 08:11:22;;;;;;;8.60;1.80;;;;;;;7.36;67.40;103401.38;7390811;19;20022;-57
2024/01/31 08:13:52;;;;;;;6.78;1.30;;;;;;;7.42;67.58;103411.81;7390505;19;20082;-55
2024/01/31 08:16:24;;;;;;;4.72;1.27;;;;;;;7.37;67.28;103428.63;7389544;19;20015;-56
2024/01/31 08:18:54;;;;;;;5.85;1.40;;;;;;;7.33;67.44;103436.59;7390496;19;20553;-56
2024/01/31 08:21:24;;;;;;;13.90;3.20;;;;;;;7.32;67.46;103431.31;7389736;19;20034;-57
2024/01/31 08:23:55;;;;;;;8.48;1.50;;;;;;;7.38;67.23;103441.75;7388355;19;20479;-58
2024/01/31 08:26:26;;;;;;;8.40;1.40;;;;;;;7.31;67.34;103440.13;7388026;19;20031;-58
2024/01/31 08:28:56;;;;;;;5.78;1.02;;;;;;;7.31;67.21;103448.91;7390736;19;20018;-55
2024/01/31 08:31:44;;;;;;;6.88;1.20;;;;;;;7.18;67.51;103457.06;7391048;19;20018;-53
2024/01/31 08:34:15;;;;;;;5.90;1.40;;;;;;;7.18;67.40;103473.72;7393580;19;20031;-53
2024/01/31 08:36:46;;;;;;;6.38;1.20;;;;;;;7.26;66.97;103468.34;7391205;19;20357;-59
2024/01/31 08:39:16;;;;;;;6.65;1.40;;;;;;;7.28;67.03;103442.81;7393752;19;20390;-58
2024/01/31 08:41:47;;;;;;;5.45;1.00;;;;;;;7.41;67.14;103439.09;7393225;19;20410;-55
2024/01/31 08:44:17;;;;;;;6.75;1.20;;;;;;;7.41;67.00;103444.34;7391345;19;20015;-57
2024/01/31 08:46:48;;;;;;;6.68;0.93;;;;;;;7.37;67.30;103452.34;7390263;19;20010;-57
2024/01/31 08:49:39;;;;;;;4.93;1.13;;;;;;;7.36;66.82;103448.81;7392206;19;20078;-56
2024/01/31 08:52:11;;;;;;;6.43;1.30;;;;;;;7.33;67.40;103460.31;7392267;19;20015;-56
2024/01/31 08:54:42;;;;;;;6.20;1.00;;;;;;;7.36;67.32;103453.22;7390232;19;20029;-57
2024/01/31 08:57:12;;;;;;;8.88;1.10;;;;;;;7.36;66.95;103447.94;7386490;19;20364;-56
2024/01/31 08:59:44;;;;;;;4.75;1.00;;;;;;;7.41;67.32;103452.28;7389925;19;20026;-54
2024/01/31 09:02:15;;;;;;;4.20;0.95;;;;;;;7.39;67.11;103446.13;7387590;19;20014;-56
2024/01/31 09:04:45;;;;;;;4.03;0.85;;;;;;;7.50;66.57;103438.91;7389092;19;20456;-58
2024/01/31 09:07:16;;;;;;;3.50;0.75;;;;;;;7.55;66.82;103436.19;7387108;19;20078;-59
2024/01/31 09:09:46;;;;;;;4.45;0.90;;;;;;;7.55;66.52;103430.91;7387419;19;20090;-59
2024/01/31 09:12:17;;;;;;;3.05;1.17;;;;;;;7.49;66.65;103431.91;7388645;19;20022;-59
2024/01/31 09:14:47;;;;;;;9.35;1.30;;;;;;;7.53;66.34;103432.72;7388530;19;20040;-59
2024/01/31 09:17:17;;;;;;;6.35;1.08;;;;;;;7.52;66.24;103434.50;7386646;19;20027;-58
2024/01/31 09:19:49;;;;;;;5.95;1.10;;;;;;;7.49;66.47;103445.09;7387300;19;20022;-57
2024/01/31 09:22:20;;;;;;;5.53;1.10;;;;;;;7.56;66.03;103433.53;7388562;19;20477;-56
2024/01/31 09:24:50;;;;;;;5.55;1.13;;;;;;;7.58;65.64;103426.47;7388360;19;20007;-58
2024/01/31 09:27:20;;;;;;;4.38;1.25;;;;;;;7.57;65.51;103423.88;7385449;19;20376;-57
2024/01/31 09:29:51;;;;;;;6.25;1.15;;;;;;;7.48;66.09;103410.84;7388330;19;20022;-58
2024/01/31 09:32:21;;;;;;;5.72;1.10;;;;;;;7.66;65.60;103401.72;7388219;19;20022;-57
2024/01/31 09:34:51;;;;;;;6.78;1.10;;;;;;;7.68;65.34;103402.56;7390568;19;20332;-58
2024/01/31 09:37:26;;;;;;;6.05;1.10;;;;;;;7.56;65.47;103388.72;7391248;19;20039;-58
2024/01/31 09:39:56;;;;;;;7.30;1.10;;;;;;;7.61;64.89;103393.91;7396208;19;20018;-58
2024/01/31 09:42:29;;;;;;;6.03;1.02;;;;;;;7.60;64.73;103381.63;7390871;19;20018;-57
2024/01/31 09:45:01;;;;;;;4.45;0.98;;;;;;;7.56;65.18;103377.31;7393009;19;20014;-56
2024/01/31 09:47:43;;;;;;;5.95;0.77;;;;;;;7.64;64.61;103375.38;7390251;19;20025;-59
2024/01/31 09:50:15;;;;;;;5.18;0.85;;;;;;;7.69;64.69;103367.38;7394192;19;20019;-56
2024/01/31 09:52:55;;;;;;;6.50;0.97;;;;;;;7.72;64.59;103365.56;7394905;19;20139;-53
2024/01/31 09:55:27;;;;;;;5.07;0.95;;;;;;;7.58;64.60;103365.81;7394691;19;20247;-55
2024/01/31 09:57:56;;;;;;;4.38;1.00;;;;;;;7.70;64.29;103377.88;7394730;19;20018;-57
2024/01/31 10:00:24;;;;;;;5.18;1.10;;;;;;;7.68;63.85;103377.06;7394485;19;20022;-56
2024/01/31 10:02:53;;;;;;;5.28;0.90;;;;;;;7.58;64.46;103365.81;7394458;19;20018;-58
2024/01/31 10:05:21;;;;;;;4.28;0.80;;;;;;;7.76;63.97;103374.28;7393620;19;20377;-58
2024/01/31 10:07:50;;;;;;;2.97;0.98;;;;;;;7.81;63.40;103373.28;7393703;19;20034;-57
2024/01/31 10:10:18;;;;;;;4.68;1.00;;;;;;;7.80;63.60;103368.91;7392314;19;20021;-56
2024/01/31 10:12:47;;;;;;;5.88;1.20;;;;;;;7.77;63.33;103363.69;7393656;19;20059;-58
2024/01/31 10:15:15;;;;;;;5.43;1.80;;;;;;;7.75;63.42;103370.78;7394122;19;20023;-57
2024/01/31 10:17:47;;;;;;;3.92;1.30;;;;;;;7.80;63.11;103363.63;7390333;19;20026;-58
2024/01/31 10:20:17;;;;;;;2.33;1.20;;;;;;;7.88;63.26;103371.38;7393499;19;20487;-60
2024/01/31 10:22:45;;;;;;;3.67;1.00;;;;;;;7.80;63.52;103373.31;7393053;19;20331;-58
2024/01/31 10:25:17;;;;;;;3.70;1.02;;;;;;;7.81;63.46;103372.41;7392833;19;20018;-57
2024/01/31 10:27:47;;;;;;;5.25;1.02;;;;;;;7.68;63.62;103368.28;7390335;19;20463;-60
2024/01/31 10:30:17;;;;;;;4.32;0.90;;;;;;;7.70;64.12;103359.44;7392908;19;20056;-59
2024/01/31 10:32:46;;;;;;;4.13;1.13;;;;;;;7.73;63.90;103354.09;7392608;19;20018;-59
2024/01/31 10:35:18;;;;;;;3.55;1.00;;;;;;;7.77;63.83;103354.91;7393067;19;20017;-59
2024/01/31 10:38:07;;;;;;;3.17;1.02;;;;;;;7.43;64.82;103345.00;7392855;19;20355;-57
2024/01/31 10:40:40;;;;;;;4.13;0.80;;;;;;;7.44;64.74;103330.94;7393451;19;20108;-55
2024/01/31 10:43:09;;;;;;;3.65;1.40;;;;;;;7.69;64.45;103338.38;7393118;19;20014;-57
2024/01/31 10:45:38;;;;;;;3.55;1.10;;;;;;;7.81;64.38;103327.56;7390003;19;20021;-58
2024/01/31 10:48:09;;;;;;;5.78;1.30;;;;;;;7.81;63.90;103324.94;7392947;19;20017;-56
2024/01/31 10:50:41;;;;;;;2.53;1.00;;;;;;;7.84;64.13;103330.16;7392174;19;20019;-57
2024/01/31 10:53:12;;;;;;;2.50;1.00;;;;;;;7.77;63.94;103320.63;7391191;19;20018;-57
2024/01/31 10:55:44;;;;;;;3.55;1.00;;;;;;;7.83;64.03;103315.22;7391495;19;20026;-56
2024/01/31 10:58:16;;;;;;;3.70;0.90;;;;;;;7.86;63.67;103315.16;7393074;19;20021;-56
2024/01/31 11:00:47;;;;;;;3.95;1.00;;;;;;;7.86;63.65;103322.19;7392361;19;20042;-55
2024/01/31 11:03:17;;;;;;;2.58;0.80;;;;;;;7.76;63.78;103303.94;7392441;19;20056;-58
2024/01/31 11:05:47;;;;;;;5.10;1.02;;;;;;;7.94;63.45;103304.44;7390696;19;20018;-58
2024/01/31 11:08:23;;;;;;;2.80;0.88;;;;;;;7.90;63.17;103305.38;7390326;19;20036;-59
2024/01/31 11:10:54;;;;;;;3.50;0.88;;;;;;;7.75;63.62;103310.09;7391638;19;20471;-60
2024/01/31 11:13:25;;;;;;;6.10;1.20;;;;;;;7.78;63.84;103299.50;7392277;19;20028;-58
2024/01/31 11:15:55;;;;;;;7.40;1.30;;;;;;;7.92;63.74;103299.19;7391140;19;20097;-57
2024/01/31 11:18:25;;;;;;;3.63;1.20;;;;;;;7.96;63.57;103284.16;7392045;19;20508;-59
2024/01/31 11:20:57;;;;;;;5.90;1.50;;;;;;;7.98;63.41;103291.16;7392120;19;20422;-58
2024/01/31 11:23:31;;;;;;;3.13;1.27;;;;;;;7.93;63.46;103278.94;7391676;19;20411;-57
2024/01/31 11:26:02;;;;;;;4.47;1.70;;;;;;;7.93;63.54;103282.44;7389785;19;20026;-59
2024/01/31 11:28:42;;;;;;;4.18;1.58;;;;;;;7.84;62.66;103287.94;7391082;19;20026;-55
2024/01/31 11:31:14;;;;;;;4.45;1.65;;;;;;;7.82;62.88;103281.81;7391263;19;20010;-58
2024/01/31 11:33:44;;;;;;;4.95;1.75;;;;;;;7.78;63.12;103269.59;7391476;19;20074;-57
2024/01/31 11:36:15;;;;;;;6.03;1.98;;;;;;;7.89;62.71;103272.88;7389362;19;20025;-58
2024/01/31 11:38:46;;;;;;;7.63;1.88;;;;;;;7.76;62.71;103260.88;7391234;19;20085;-58
2024/01/31 11:41:16;;;;;;;7.28;1.90;;;;;;;7.76;62.33;103258.22;7390924;19;20082;-61
2024/01/31 11:43:47;;;;;;;7.75;1.88;;;;;;;7.90;62.25;103256.16;7391341;19;20014;-58
2024/01/31 11:46:17;;;;;;;7.57;2.25;;;;;;;7.97;61.86;103243.69;7389425;19;20445;-59
2024/01/31 11:48:48;;;;;;;3.15;1.85;;;;;;;7.91;61.91;103234.16;7391203;19;20031;-58
2024/01/31 11:51:18;;;;;;;5.55;1.95;;;;;;;7.98;61.55;103230.47;7391409;19;20018;-58
2024/01/31 11:53:49;;;;;;;3.88;1.65;;;;;;;8.05;61.08;103233.81;7390921;19;20340;-57